• Join FlightAware (Why Join?)
  • Login
  • US Flag 
10:04AM EDT


 

Airport Tracker/Info


-or-


 

Live Flight TrackerFlight Track Log ✈ ASQ4252 ✈ 06-Jun-2013 ✈ KGJT - KDEN

Flight Track Log - Related Links

Times and Time Zones

All times are in EDT time to prevent confusion due to time zone crossing. See the ASQ4252 flight status page for this flight to view local times or setup timezone preferences in your user account.

Time Position Orientation Groundspeed Altitude Reporting Facility
EDT Latitude Longitude Course Direction KTS MPH feet Rate Location/Type
09:26AM 39.1053 -108.4944 90° East 196 226 5,800  Level Denver Center
09:27AM 39.0444 -108.4661 160° South 223 257 8,200 2,400 Climbing Denver Center
09:28AM 38.9803 -108.4422 164° South 242 278 10,700 1,680 Climbing Denver Center
09:29AM 38.9367 -108.3653 126° Southeast 284 327 11,700 1,080 Climbing Denver Center
09:30AM 39.2087 -108.1130 131° Southeast  Level Estimated
09:31AM 39.1258 -108.1067 177° South  Level FlightAware Approximate
09:31AM 38.8892 -108.2536 119° Southeast 339 390 13,000  Level Denver Center
09:32AM 39.1495 -108.0041 90° East  Level Estimated
09:32AM 38.8394 -108.1364 119° Southeast 371 427 14,400  Level Denver Center
09:33AM 38.8389 -108.0028 90° East 380 437 16,000 1,440 Climbing Denver Center
09:34AM 38.8678 -107.8775 73° East 382 440 17,400 1,500 Climbing Denver Center
09:35AM 38.8975 -107.7494 73° East 390 449 19,100 1,740 Climbing Denver Center
09:36AM 38.9311 -107.6033 73° East 385 443 21,000 1,740 Climbing Denver Center
09:37AM 38.9594 -107.4767 74° East 386 444 22,700 1,800 Climbing Denver Center
09:38AM 38.9939 -107.3294 73° East 385 443 24,800 1,080 Climbing Denver Center
09:39AM 39.0228 -107.1992 74° East 393 452 25,000 60 Climbing Denver Center
09:40AM 39.0569 -107.0506 73° East 442 509 25,000  Level Denver Center
09:41AM 39.0961 -106.8731 74° East 462 532 25,000  Level Denver Center
09:42AM 39.1308 -106.7169 74° East 472 543 25,000  Level Denver Center
09:43AM 39.1708 -106.5333 74° East 476 548 25,000  Level Denver Center
09:44AM 39.2050 -106.3753 74° East 478 550 25,000  Level Denver Center
09:45AM 39.2397 -106.2175 74° East 479 551 25,000  Level Denver Center
09:46AM 39.2731 -106.0561 75° East 476 548 25,000  Level Denver Center
09:47AM 39.3083 -105.8947 74° East 468 539 25,000 -420 Level Denver Center
09:48AM 39.3458 -105.7133 75° East 438 504 24,100 -1,440 Descending Denver Center
09:49AM 39.3803 -105.5503 75° East 394 453 21,800 -1,920 Descending Denver Center
09:50AM 39.4214 -105.4342 65° Northeast 362 417 20,200 -1,620 Descending Denver Center
09:51AM 39.4744 -105.3322 56° Northeast 342 394 18,500 -1,620 Descending Denver Center
09:52AM 39.5275 -105.2269 57° Northeast 350 403 17,000 -1,560 Descending Denver Center
09:53AM 39.5833 -105.0883 62° Northeast 402 463 15,400 -1,500 Descending Denver Center
09:54AM 39.6328 -104.9636 63° Northeast 391 450 14,000 -1,200 Descending Denver Center
09:55AM 39.6817 -104.8431 62° Northeast 381 438 13,000 -660 Descending Denver Center
09:56AM 39.7356 -104.7097 62° Northeast 390 449 12,700 -660 Descending Denver Center
09:57AM 39.7650 -104.5864 73° East 365 420 11,700 -1,440 Descending Denver Center
09:58AM 39.7742 -104.4742 84° East 308 354 9,800 -2,280 Descending Denver Center
09:59AM 39.8347 -104.4311 29° Northeast 278 320 7,100 -2,640 Descending Denver Center